Time;durP1;ratioP1;P1;durP2;ratioP2;P2;SDS_P1;SDS_P2;PMS_P1;PMS_P2;Temp;Humidity;BMP_temperature;BMP_pressure;BME280_temperature;BME280_humidity;BME280_pressure;Samples;Min_cycle;Max_cycle;Signal;HPM_P1;HPM_P2
2023/11/16 00:00:36;;;;;;;;;;;;;;;16.05;46.43;100419.31;5082205;28;1036;-48
2023/11/16 00:03:03;;;;;;;;;;;;;;;15.56;47.09;100413.34;5095835;28;1041;-49
2023/11/16 00:05:28;;;;;;;;;;;;;;;15.38;46.39;100411.97;5088970;28;1046;-44
2023/11/16 00:07:55;;;;;;;;;;;;;;;15.26;45.79;100408.69;5076031;28;2085;-49
2023/11/16 00:10:20;;;;;;;;;;;;;;;15.29;45.19;100418.28;5095312;28;1122;-45
2023/11/16 00:12:46;;;;;;;;;;;;;;;15.14;45.09;100419.09;5083333;28;898;-49
2023/11/16 00:15:11;;;;;;;;;;;;;;;15.18;44.45;100434.72;5080765;28;1059;-49
2023/11/16 00:17:37;;;;;;;;;;;;;;;15.04;44.41;100426.22;5083538;28;1914;-45
2023/11/16 00:20:04;;;;;;;;;;;;;;;15.10;44.16;100423.50;5094319;28;1107;-45
2023/11/16 00:22:29;;;;;;;;;;;;;;;15.00;44.05;100422.38;5083720;28;1022;-49
2023/11/16 00:24:55;;;;;;;;;;;;;;;15.97;46.29;100417.16;5078339;28;1040;-48
2023/11/16 00:27:24;;;;;;;;;;;;;;;15.54;46.72;100407.34;5091544;28;1179;-45
2023/11/16 00:29:49;;;;;;;;;;;;;;;15.38;46.07;100400.22;5099502;28;1201;-44
2023/11/16 00:32:15;;;;;;;;;;;;;;;15.87;46.94;100393.31;5086517;28;1066;-47
2023/11/16 00:34:40;;;;;;;;;;;;;;;15.67;47.06;100399.63;5078902;28;1138;-47
2023/11/16 00:37:07;;;;;;;;;;;;;;;15.40;46.76;100396.09;5094834;28;1917;-46
2023/11/16 00:39:33;;;;;;;;;;;;;;;15.30;46.02;100403.50;5093565;28;1042;-48
2023/11/16 00:41:59;;;;;;;;;;;;;;;15.26;45.53;100405.94;5073397;28;1158;-47
2023/11/16 00:44:25;;;;;;;;;;;;;;;15.23;44.83;100398.28;5081147;28;1102;-48
2023/11/16 00:46:51;;;;;;;;;;;;;;;15.13;44.58;100398.28;5099152;28;1090;-45
2023/11/16 00:49:17;;;;;;;;;;;;;;;15.06;44.42;100402.09;5082640;28;1121;-45
2023/11/16 00:51:42;;;;;;;;;;;;;;;15.15;44.64;100423.47;5078848;28;1016;-47
2023/11/16 00:54:11;;;;;;;;;;;;;;;16.13;46.76;100427.00;5085156;28;1150;-50
2023/11/16 00:56:37;;;;;;;;;;;;;;;15.47;47.27;100430.63;5067574;28;1972;-46
2023/11/16 00:59:05;;;;;;;;;;;;;;;15.36;46.33;100427.03;5074233;28;1257;-45
2023/11/16 01:01:32;;;;;;;;;;;;;;;15.27;45.77;100420.47;5095400;28;884;-44
2023/11/16 01:03:57;;;;;;;;;;;;;;;15.22;45.47;100418.53;5085484;28;999;-45
2023/11/16 01:06:23;;;;;;;;;;;;;;;15.15;45.01;100426.22;5084669;28;1962;-45
2023/11/16 01:08:48;;;;;;;;;;;;;;;15.10;44.44;100439.91;5078544;28;1114;-45
2023/11/16 01:11:16;;;;;;;;;;;;;;;15.00;44.36;100447.00;5078559;28;1042;-47
2023/11/16 01:13:42;;;;;;;;;;;;;;;15.85;46.36;100447.59;5077984;28;1120;-47
2023/11/16 01:16:12;;;;;;;;;;;;;;;15.56;46.84;100445.41;5098425;28;1117;-46
2023/11/16 01:18:42;;;;;;;;;;;;;;;15.36;46.24;100452.53;5098800;28;1011;-43
2023/11/16 01:21:08;;;;;;;;;;;;;;;15.24;45.63;100457.44;5080376;28;1011;-48
2023/11/16 01:23:36;;;;;;;;;;;;;;;15.16;44.93;100456.06;5098687;28;1030;-47
2023/11/16 01:26:03;;;;;;;;;;;;;;;15.05;45.03;100468.09;5097500;28;1046;-45
2023/11/16 01:28:31;;;;;;;;;;;;;;;15.88;46.27;100474.47;5085055;28;1043;-47
2023/11/16 01:30:56;;;;;;;;;;;;;;;15.52;47.07;100477.22;5080089;28;1619;-45
2023/11/16 01:33:22;;;;;;;;;;;;;;;15.31;46.31;100470.88;5098649;28;1075;-47
2023/11/16 01:35:50;;;;;;;;;;;;;;;15.25;45.61;100475.53;5095914;28;1797;-47
2023/11/16 01:38:16;;;;;;;;;;;;;;;15.16;45.31;100463.47;5084568;28;1983;-44
2023/11/16 01:40:41;;;;;;;;;;;;;;;15.04;44.96;100455.53;5091038;28;2307;-47
2023/11/16 01:43:08;;;;;;;;;;;;;;;15.10;44.31;100453.59;5067956;28;1338;-45
2023/11/16 01:45:34;;;;;;;;;;;;;;;16.15;46.27;100452.19;5076706;28;1296;-45
2023/11/16 01:48:04;;;;;;;;;;;;;;;15.60;47.29;100442.94;5066299;28;1356;-44
2023/11/16 01:50:30;;;;;;;;;;;;;;;15.40;46.25;100420.75;5074702;28;1102;-44
2023/11/16 01:53:03;;;;;;;;;;;;;;;15.34;45.51;100412.81;5098049;28;1131;-49
2023/11/16 01:55:30;;;;;;;;;;;;;;;15.18;45.24;100418.28;5082671;28;1198;-44
2023/11/16 01:57:56;;;;;;;;;;;;;;;15.21;44.60;100425.13;5068889;28;1910;-50
2023/11/16 02:00:21;;;;;;;;;;;;;;;15.06;44.74;100420.47;5060549;28;1544;-47
2023/11/16 02:02:47;;;;;;;;;;;;;;;15.03;44.24;100421.81;5069377;28;1123;-45
2023/11/16 02:05:12;;;;;;;;;;;;;;;15.11;45.00;100425.09;5077260;28;1102;-45
2023/11/16 02:07:38;;;;;;;;;;;;;;;16.06;46.54;100410.81;5068403;28;1170;-48
2023/11/16 02:10:05;;;;;;;;;;;;;;;15.47;47.22;100420.47;5084977;28;1138;-44
2023/11/16 02:12:31;;;;;;;;;;;;;;;15.36;46.30;100435.25;5097444;28;1129;-46
2023/11/16 02:14:56;;;;;;;;;;;;;;;15.28;45.53;100442.13;5079309;28;1133;-45
2023/11/16 02:17:23;;;;;;;;;;;;;;;15.23;44.80;100436.63;5069806;28;1909;-45
2023/11/16 02:19:48;;;;;;;;;;;;;;;15.09;44.86;100441.00;5090578;28;995;-44
2023/11/16 02:22:14;;;;;;;;;;;;;;;15.66;45.86;100433.63;5059790;28;1043;-44
2023/11/16 02:24:40;;;;;;;;;;;;;;;15.73;47.31;100434.16;5075377;28;1019;-45
2023/11/16 02:27:05;;;;;;;;;;;;;;;15.44;46.53;100426.50;5087661;28;1037;-43
2023/11/16 02:29:31;;;;;;;;;;;;;;;15.32;45.89;100415.81;5077070;28;1120;-45
2023/11/16 02:31:56;;;;;;;;;;;;;;;15.45;46.08;100402.69;5059173;28;1071;-45
2023/11/16 02:34:22;;;;;;;;;;;;;;;15.67;46.81;100402.34;5093490;28;1095;-48
2023/11/16 02:36:47;;;;;;;;;;;;;;;15.39;46.44;100413.63;5088186;28;1905;-46
2023/11/16 02:39:15;;;;;;;;;;;;;;;15.34;45.93;100421.84;5079174;28;1032;-44
2023/11/16 02:41:41;;;;;;;;;;;;;;;15.22;45.46;100430.34;5096883;28;1010;-49
2023/11/16 02:44:07;;;;;;;;;;;;;;;15.16;45.09;100447.84;5083976;28;1093;-46
2023/11/16 02:46:33;;;;;;;;;;;;;;;15.18;44.48;100456.63;5087265;28;1022;-46
2023/11/16 02:48:58;;;;;;;;;;;;;;;15.61;45.90;100458.28;5076409;28;1146;-47
2023/11/16 02:51:24;;;;;;;;;;;;;;;15.77;46.89;100465.41;5077388;28;1105;-47
2023/11/16 02:53:51;;;;;;;;;;;;;;;15.47;46.46;100472.53;5075166;28;1166;-44
2023/11/16 02:56:16;;;;;;;;;;;;;;;15.38;45.68;100477.72;5078711;28;1974;-47
2023/11/16 02:58:43;;;;;;;;;;;;;;;15.18;45.48;100473.06;5083670;28;1150;-45
2023/11/16 03:01:09;;;;;;;;;;;;;;;15.19;44.76;100491.16;5078229;28;1159;-45
2023/11/16 03:03:35;;;;;;;;;;;;;;;15.18;44.45;100492.22;5078171;28;2616;-45
2023/11/16 03:06:00;;;;;;;;;;;;;;;15.16;44.00;100496.34;5097036;28;1054;-48
2023/11/16 03:08:26;;;;;;;;;;;;;;;16.03;46.20;100501.88;5065082;28;1347;-47
2023/11/16 03:10:53;;;;;;;;;;;;;;;15.55;46.43;100510.34;5086803;28;1053;-45
2023/11/16 03:13:18;;;;;;;;;;;;;;;15.39;46.19;100520.47;5089946;28;1178;-45
2023/11/16 03:15:44;;;;;;;;;;;;;;;15.29;45.23;100506.78;5086176;28;1138;-46
2023/11/16 03:18:09;;;;;;;;;;;;;;;15.30;45.01;100515.81;5079992;28;1963;-48
2023/11/16 03:20:35;;;;;;;;;;;;;;;15.15;44.71;100517.44;5086456;28;1255;-44
2023/11/16 03:23:01;;;;;;;;;;;;;;;15.13;44.31;100540.69;5078373;28;1058;-46
2023/11/16 03:25:26;;;;;;;;;;;;;;;15.12;44.09;100539.84;5086789;28;1113;-46
2023/11/16 03:27:52;;;;;;;;;;;;;;;15.36;45.16;100540.22;5090173;28;1154;-46
2023/11/16 03:30:17;;;;;;;;;;;;;;;15.56;46.36;100539.41;5076202;28;1107;-48
2023/11/16 03:32:45;;;;;;;;;;;;;;;15.31;46.22;100531.16;5078646;28;1023;-46
2023/11/16 03:35:13;;;;;;;;;;;;;;;15.19;45.57;100534.13;5096324;28;1070;-50
2023/11/16 03:37:41;;;;;;;;;;;;;;;15.05;45.32;100562.03;5091109;28;1901;-43
2023/11/16 03:40:08;;;;;;;;;;;;;;;14.93;44.67;100558.69;5086153;28;1050;-44
2023/11/16 03:42:34;;;;;;;;;;;;;;;16.02;46.01;100557.81;5076173;28;1047;-43
2023/11/16 03:44:59;;;;;;;;;;;;;;;15.62;46.37;100562.16;5076529;28;902;-44
2023/11/16 03:47:25;;;;;;;;;;;;;;;15.43;45.97;100563.78;5058206;28;1507;-48
2023/11/16 03:49:51;;;;;;;;;;;;;;;15.31;45.55;100564.84;5086446;28;1067;-43
2023/11/16 03:52:17;;;;;;;;;;;;;;;15.20;45.17;100568.66;5081947;28;1026;-45
2023/11/16 03:54:45;;;;;;;;;;;;;;;15.14;44.75;100569.75;5095964;28;1085;-47
2023/11/16 03:57:11;;;;;;;;;;;;;;;15.96;46.19;100580.03;5064516;28;1901;-48
2023/11/16 03:59:37;;;;;;;;;;;;;;;15.58;46.77;100580.25;5099539;28;991;-45
2023/11/16 04:02:04;;;;;;;;;;;;;;;15.37;46.29;100596.63;5086202;28;1177;-46
2023/11/16 04:04:30;;;;;;;;;;;;;;;15.34;45.55;100607.31;5100487;28;1109;-45
2023/11/16 04:06:55;;;;;;;;;;;;;;;15.22;44.94;100604.81;5077849;28;2315;-47
2023/11/16 04:09:21;;;;;;;;;;;;;;;15.16;44.74;100605.88;5062133;28;1293;-48
2023/11/16 04:11:47;;;;;;;;;;;;;;;15.11;44.56;100603.13;5092958;28;1118;-45
2023/11/16 04:14:15;;;;;;;;;;;;;;;15.04;44.41;100609.69;5080014;28;855;-49
2023/11/16 04:16:41;;;;;;;;;;;;;;;15.89;45.61;100613.22;5079769;28;1905;-47
2023/11/16 04:19:09;;;;;;;;;;;;;;;15.42;46.24;100614.19;5090584;28;1137;-45
2023/11/16 04:21:36;;;;;;;;;;;;;;;15.30;45.77;100628.13;5100214;28;1081;-47
2023/11/16 04:24:05;;;;;;;;;;;;;;;15.14;45.60;100625.31;5070220;28;1078;-48
2023/11/16 04:26:31;;;;;;;;;;;;;;;15.12;45.02;100621.19;5078335;28;1274;-48
2023/11/16 04:28:57;;;;;;;;;;;;;;;15.88;45.89;100622.56;5079713;28;1074;-46
2023/11/16 04:31:24;;;;;;;;;;;;;;;15.39;46.46;100626.53;5074599;28;1163;-48
2023/11/16 04:33:51;;;;;;;;;;;;;;;15.35;45.66;100633.63;5084425;28;1272;-45
2023/11/16 04:36:17;;;;;;;;;;;;;;;15.20;45.52;100620.69;5079659;28;1153;-54
2023/11/16 04:38:43;;;;;;;;;;;;;;;15.62;46.42;100635.34;5084142;28;1226;-54
2023/11/16 04:41:09;;;;;;;;;;;;;;;15.37;45.97;100640.47;5099163;28;1058;-54
2023/11/16 04:43:35;;;;;;;;;;;;;;;15.28;45.54;100650.31;5094145;28;1062;-54
2023/11/16 04:46:01;;;;;;;;;;;;;;;15.18;45.04;100667.53;5079450;28;1075;-50
2023/11/16 04:48:27;;;;;;;;;;;;;;;15.17;44.90;100654.91;5092341;28;1058;-50
2023/11/16 04:50:53;;;;;;;;;;;;;;;15.12;44.64;100662.28;5090666;28;1253;-49
2023/11/16 04:53:19;;;;;;;;;;;;;;;15.08;44.70;100644.72;5091798;28;1239;-48
2023/11/16 04:55:45;;;;;;;;;;;;;;;15.00;44.51;100625.00;5098484;28;999;-49
2023/11/16 04:58:10;;;;;;;;;;;;;;;14.98;44.07;100632.63;5090989;28;1985;-46
2023/11/16 05:00:36;;;;;;;;;;;;;;;14.91;44.08;100636.72;5090356;28;1125;-46
2023/11/16 05:03:01;;;;;;;;;;;;;;;14.85;44.37;100633.94;5089831;28;927;-46
2023/11/16 05:05:27;;;;;;;;;;;;;;;15.72;45.66;100647.19;5090359;28;1254;-44
2023/11/16 05:07:52;;;;;;;;;;;;;;;15.31;46.64;100649.78;5097608;28;1049;-44
2023/11/16 05:10:18;;;;;;;;;;;;;;;15.18;45.96;100653.84;5083135;28;1139;-47
2023/11/16 05:12:48;;;;;;;;;;;;;;;15.07;45.48;100674.06;5087351;28;1209;-49
2023/11/16 05:15:15;;;;;;;;;;;;;;;14.99;45.45;100672.63;5097207;28;1090;-42
2023/11/16 05:17:41;;;;;;;;;;;;;;;14.87;45.16;100674.75;5095419;28;1913;-45
2023/11/16 05:20:07;;;;;;;;;;;;;;;14.87;44.94;100674.75;5088336;28;1121;-42
2023/11/16 05:22:32;;;;;;;;;;;;;;;15.37;45.82;100678.81;5085299;28;1162;-43
2023/11/16 05:24:58;;;;;;;;;;;;;;;15.50;47.08;100679.44;5088436;28;1177;-43
2023/11/16 05:27:27;;;;;;;;;;;;;;;15.19;46.71;100693.00;5093924;28;1046;-46
2023/11/16 05:29:53;;;;;;;;;;;;;;;15.10;46.03;100691.88;5098650;28;1076;-48
2023/11/16 05:32:18;;;;;;;;;;;;;;;16.32;44.38;100682.38;5079023;28;1149;-47
2023/11/16 05:34:44;;;;;;;;;;;;;;;17.15;42.60;100682.28;5096282;28;1370;-41
2023/11/16 05:37:12;;;;;;;;;;;;;;;16.83;43.12;100675.19;5096628;28;1975;-43
2023/11/16 05:39:37;;;;;;;;;;;;;;;16.19;45.19;100699.38;5097260;28;1212;-44
2023/11/16 05:42:06;;;;;;;;;;;;;;;17.16;43.25;100690.22;5091481;28;1353;-42
2023/11/16 05:44:32;;;;;;;;;;;;;;;17.06;43.35;100707.56;5091643;28;1065;-42
2023/11/16 05:46:59;;;;;;;;;;;;;;;16.34;45.22;100707.63;5098037;28;1081;-42
2023/11/16 05:49:25;;;;;;;;;;;;;;;16.11;46.15;100724.59;5098573;28;1146;-42
2023/11/16 05:51:53;;;;;;;;;;;;;;;17.39;43.40;100726.44;5079824;28;1006;-47
2023/11/16 05:54:21;;;;;;;;;;;;;;;16.93;44.25;100728.19;5084839;28;1350;-49
2023/11/16 05:56:48;;;;;;;;;;;;;;;16.41;45.53;100735.63;5098080;28;1972;-41
2023/11/16 05:59:14;;;;;;;;;;;;;;;16.54;45.74;100744.41;5100522;28;1427;-49
2023/11/16 06:01:42;;;;;;;;;;;;;;;17.47;43.63;100747.03;5097665;28;1041;-48
2023/11/16 06:04:08;;;;;;;;;;;;;;;16.66;45.33;100747.72;5096386;28;1362;-48
2023/11/16 06:06:34;;;;;;;;;;;;;;;16.50;46.03;100754.28;5102695;28;1255;-49
2023/11/16 06:09:00;;;;;;;;;;;;;;;17.62;43.47;100752.47;5089606;28;1231;-45
2023/11/16 06:11:25;;;;;;;;;;;;;;;16.84;45.44;100764.72;5084268;28;1082;-49
2023/11/16 06:13:54;;;;;;;;;;;;;;;16.47;46.47;100766.63;5091717;28;1378;-47
2023/11/16 06:16:24;;;;;;;;;;;;;;;17.05;45.22;100768.28;5083700;28;1081;-45
2023/11/16 06:18:49;;;;;;;;;;;;;;;17.19;44.86;100776.78;5091636;28;1313;-49
2023/11/16 06:21:15;;;;;;;;;;;;;;;16.63;46.47;100786.66;5102988;28;1085;-46
2023/11/16 06:23:41;;;;;;;;;;;;;;;17.52;44.39;100785.50;5092703;28;1472;-46
2023/11/16 06:26:06;;;;;;;;;;;;;;;17.16;45.21;100785.59;5105437;28;1640;-44
2023/11/16 06:28:32;;;;;;;;;;;;;;;16.71;46.55;100782.56;5096424;28;1140;-47
2023/11/16 06:30:57;;;;;;;;;;;;;;;16.55;47.09;100784.47;5086376;28;1523;-48
2023/11/16 06:33:23;;;;;;;;;;;;;;;17.49;44.63;100780.56;5096385;28;1311;-44
2023/11/16 06:35:48;;;;;;;;;;;;;;;16.81;46.28;100781.75;5097083;28;1520;-49
2023/11/16 06:38:16;;;;;;;;;;;;;;;16.56;47.00;100788.88;5096179;28;1980;-49
2023/11/16 06:40:41;;;;;;;;;;;;;;;17.17;45.96;100779.81;5097079;28;1473;-43
2023/11/16 06:43:10;;;;;;;;;;;;;;;17.15;45.67;100789.44;5078400;28;1485;-46
2023/11/16 06:45:40;;;;;;;;;;;;;;;16.67;47.01;100781.47;5094779;28;1469;-49
2023/11/16 06:48:09;;;;;;;;;;;;;;;16.46;47.47;100781.44;5077161;28;1442;-48
2023/11/16 06:50:35;;;;;;;;;;;;;;;16.26;48.10;100782.25;5096611;28;1405;-50
2023/11/16 06:53:05;;;;;;;;;;;;;;;17.23;45.82;100786.94;5096229;28;1385;-47
2023/11/16 06:55:34;;;;;;;;;;;;;;;17.08;46.15;100793.31;5093695;28;1252;-44
2023/11/16 06:58:00;;;;;;;;;;;;;;;16.57;47.23;100807.81;5096574;28;2040;-48
2023/11/16 07:00:26;;;;;;;;;;;;;;;17.67;44.99;100798.38;5094981;28;1378;-46
2023/11/16 07:02:52;;;;;;;;;;;;;;;17.10;46.30;100809.50;5094783;28;1200;-50
2023/11/16 07:05:17;;;;;;;;;;;;;;;16.70;47.26;100817.41;5095272;28;1362;-51
2023/11/16 07:07:46;;;;;;;;;;;;;;;16.48;47.73;100820.44;5096682;28;1181;-51
2023/11/16 07:10:12;;;;;;;;;;;;;;;17.30;45.87;100821.56;5091783;28;1448;-47
2023/11/16 07:12:41;;;;;;;;;;;;;;;17.13;46.19;100830.94;5095777;28;1476;-51
2023/11/16 07:15:08;;;;;;;;;;;;;;;16.73;47.15;100830.63;5088946;28;1382;-47
2023/11/16 07:17:33;;;;;;;;;;;;;;;16.46;47.85;100836.34;5092732;28;1993;-50
2023/11/16 07:19:59;;;;;;;;;;;;;;;16.68;47.84;100847.09;5096456;28;1425;-49
2023/11/16 07:22:25;;;;;;;;;;;;;;;17.65;45.30;100837.16;5092684;28;1437;-46
2023/11/16 07:24:51;;;;;;;;;;;;;;;16.89;47.27;100850.72;5094545;28;1330;-48
2023/11/16 07:27:16;;;;;;;;;;;;;;;16.61;47.73;100860.25;5095259;28;1386;-49
2023/11/16 07:29:44;;;;;;;;;;;;;;;17.14;46.81;100862.81;5094051;28;1465;-45
2023/11/16 07:32:11;;;;;;;;;;;;;;;17.49;45.80;100865.78;5094414;28;1438;-46
2023/11/16 07:34:40;;;;;;;;;;;;;;;16.86;47.30;100867.72;5092632;28;1383;-46
2023/11/16 07:37:06;;;;;;;;;;;;;;;16.60;47.89;100869.59;5095332;28;1980;-44
2023/11/16 07:39:32;;;;;;;;;;;;;;;17.68;45.51;100868.78;5094429;28;1170;-44
2023/11/16 07:41:59;;;;;;;;;;;;;;;16.99;47.26;100882.03;5093198;28;1141;-52
2023/11/16 07:44:25;;;;;;;;;;;;;;;16.86;47.56;100883.38;5083429;28;1079;-50
2023/11/16 07:46:51;;;;;;;;;;;;;;;17.57;45.91;100882.56;5093821;28;1118;-48
2023/11/16 07:49:17;;;;;;;;;;;;;;;16.92;47.32;100893.28;5094387;28;1053;-49
2023/11/16 07:51:43;;;;;;;;;;;;;;;16.70;47.94;100888.00;5094073;28;1338;-48
2023/11/16 07:54:11;;;;;;;;;;;;;;;16.54;48.53;100904.44;5083023;28;1430;-50
2023/11/16 07:56:38;;;;;;;;;;;;;;;17.42;46.82;100890.81;5097247;28;1909;-49
2023/11/16 07:59:03;;;;;;;;;;;;;;;17.24;46.75;100901.25;5089818;28;1406;-49
2023/11/16 08:01:50;;;;;;;;;;;;;;;16.83;48.03;100911.34;5082421;28;1121;-51
2023/11/16 08:04:19;;;;;;;;;;;;;;;16.57;48.41;100908.56;5084489;28;1437;-49
2023/11/16 08:06:45;;;;;;;;;;;;;;;16.39;49.12;100918.09;5095438;28;1326;-48
2023/11/16 08:09:10;;;;;;;;;;;;;;;16.75;48.46;100921.78;5087181;28;2361;-46
2023/11/16 08:11:38;;;;;;;;;;;;;;;17.43;46.70;100909.78;5090591;28;1007;-46
2023/11/16 08:14:06;;;;;;;;;;;;;;;16.82;47.90;100904.25;5095784;28;1129;-47
2023/11/16 08:16:32;;;;;;;;;;;;;;;16.58;48.53;100904.72;5092079;28;1974;-47
2023/11/16 08:18:57;;;;;;;;;;;;;;;17.70;46.26;100902.34;5083501;28;1169;-50
2023/11/16 08:21:23;;;;;;;;;;;;;;;17.04;47.60;100895.75;5095662;28;1307;-46
2023/11/16 08:23:49;;;;;;;;;;;;;;;16.71;48.42;100898.72;5094967;28;1142;-48
2023/11/16 08:26:14;;;;;;;;;;;;;;;16.53;48.82;100908.25;5094597;28;1069;-43
2023/11/16 08:28:43;;;;;;;;;;;;;;;17.28;47.29;100909.78;5092849;28;1124;-47
2023/11/16 08:31:12;;;;;;;;;;;;;;;17.21;47.27;100906.50;5085796;28;1575;-41
2023/11/16 08:33:38;;;;;;;;;;;;;;;16.75;48.50;100899.81;5095621;28;1165;-43
2023/11/16 08:36:03;;;;;;;;;;;;;;;17.28;47.39;100899.63;5101234;28;1113;-43
2023/11/16 08:38:29;;;;;;;;;;;;;;;17.32;47.01;100897.16;5095793;28;1990;-49
2023/11/16 08:40:55;;;;;;;;;;;;;;;16.87;48.61;100901.47;5091833;28;937;-44
2023/11/16 08:43:22;;;;;;;;;;;;;;;16.64;49.02;100903.63;5081293;28;1154;-43
2023/11/16 08:45:49;;;;;;;;;;;;;;;16.47;49.42;100903.06;5107171;28;1209;-44
2023/11/16 08:48:16;;;;;;;;;;;;;;;17.61;46.88;100896.56;5093912;28;1166;-49
2023/11/16 08:50:43;;;;;;;;;;;;;;;17.12;48.07;100902.66;5109584;28;1359;-49
2023/11/16 08:53:09;;;;;;;;;;;;;;;16.84;48.52;100907.53;5101815;28;1398;-49
2023/11/16 08:55:35;;;;;;;;;;;;;;;16.65;49.23;100912.69;5099952;28;1105;-49
2023/11/16 08:58:00;;;;;;;;;;;;;;;17.77;46.65;100906.44;5098979;28;1965;-50
2023/11/16 09:00:47;;;;;;;;;;;;;;;17.09;48.26;100910.31;5099735;28;1189;-49
2023/11/16 09:03:13;;;;;;;;;;;;;;;16.79;48.90;100905.59;5105230;28;1015;-49
2023/11/16 09:05:40;;;;;;;;;;;;;;;16.64;49.23;100911.88;5092943;28;1029;-49
2023/11/16 09:08:09;;;;;;;;;;;;;;;17.70;46.66;100905.91;5092256;28;1150;-51
2023/11/16 09:10:35;;;;;;;;;;;;;;;16.98;48.39;100900.41;5083091;28;1442;-47
2023/11/16 09:13:01;;;;;;;;;;;;;;;16.70;49.31;100904.47;5103900;28;1659;-50
2023/11/16 09:15:27;;;;;;;;;;;;;;;16.53;49.83;100899.22;5086805;28;1172;-49
2023/11/16 09:17:54;;;;;;;;;;;;;;;16.66;49.43;100893.22;5094363;28;1993;-51
2023/11/16 09:20:20;;;;;;;;;;;;;;;17.37;47.77;100893.56;5094989;28;1042;-49
2023/11/16 09:22:48;;;;;;;;;;;;;;;16.78;49.22;100901.19;5088804;28;1431;-46
2023/11/16 09:25:20;;;;;;;;;;;;;;;16.57;49.49;100892.09;5098436;28;1154;-45
2023/11/16 09:27:50;;;;;;;;;;;;;;;17.24;48.16;100894.97;5093615;28;1319;-45
2023/11/16 09:30:18;;;;;;;;;;;;;;;17.27;47.94;100895.22;5087469;28;1106;-47
2023/11/16 09:32:44;;;;;;;;;;;;;;;16.78;49.25;100892.97;5083570;28;1124;-50
2023/11/16 09:35:14;;;;;;;;;;;;;;;16.55;49.63;100897.00;5087311;28;1038;-50
2023/11/16 09:37:40;;;;;;;;;;;;;;;16.47;50.10;100892.06;5096394;28;1921;-48
2023/11/16 09:40:09;;;;;;;;;;;;;;;17.72;46.86;100889.13;5088168;28;1785;-46
2023/11/16 09:42:35;;;;;;;;;;;;;;;17.09;48.51;100887.53;5079654;28;2125;-48
2023/11/16 09:45:02;;;;;;;;;;;;;;;16.83;49.36;100883.91;5069211;28;2102;-46
2023/11/16 09:47:29;;;;;;;;;;;;;;;16.69;49.62;100892.69;5078997;28;2082;-49
2023/11/16 09:49:56;;;;;;;;;;;;;;;17.60;47.29;100892.19;5088541;28;1935;-46
2023/11/16 09:52:22;;;;;;;;;;;;;;;16.95;48.83;100892.72;5093446;28;1879;-49
2023/11/16 09:54:50;;;;;;;;;;;;;;;16.72;49.63;100888.56;5088300;28;1799;-46
2023/11/16 09:57:19;;;;;;;;;;;;;;;16.55;50.22;100881.38;5062264;28;1906;-46
2023/11/16 09:59:52;;;;;;;;;;;;;;;16.43;50.15;100881.63;5083676;28;1011;-45
2023/11/16 10:02:23;;;;;;;;;;;;;;;17.04;48.83;100885.63;5096927;28;1011;-50
2023/11/16 10:04:49;;;;;;;;;;;;;;;17.57;47.53;100882.56;5097761;28;1384;-48
2023/11/16 10:07:25;;;;;;;;;;;;;;;16.91;49.02;100881.50;5093954;28;1502;-48
2023/11/16 10:09:53;;;;;;;;;;;;;;;16.62;49.77;100881.13;5096803;28;1022;-48
2023/11/16 10:12:18;;;;;;;;;;;;;;;16.49;50.21;100878.88;5085385;28;1067;-49
2023/11/16 10:14:52;;;;;;;;;;;;;;;17.62;47.65;100873.47;5092345;28;1061;-47
2023/11/16 10:17:24;;;;;;;;;;;;;;;17.08;48.66;100875.72;5090115;28;2002;-46
2023/11/16 10:19:50;;;;;;;;;;;;;;;16.72;49.49;100881.16;5099054;28;990;-43
2023/11/16 10:22:16;;;;;;;;;;;;;;;16.58;49.91;100878.09;5083742;28;1066;-48
2023/11/16 10:24:42;;;;;;;;;;;;;;;16.45;50.20;100884.09;5090795;28;1789;-48
2023/11/16 10:27:09;;;;;;;;;;;;;;;17.58;47.86;100880.63;5096952;28;1046;-45
2023/11/16 10:29:35;;;;;;;;;;;;;;;17.07;48.89;100867.75;5096314;28;1154;-48
2023/11/16 10:32:02;;;;;;;;;;;;;;;16.73;49.69;100873.72;5102410;28;1471;-46
2023/11/16 10:34:28;;;;;;;;;;;;;;;16.58;49.93;100871.78;5096905;28;1283;-50
2023/11/16 10:36:57;;;;;;;;;;;;;;;16.57;50.13;100872.88;5096702;28;1972;-48
2023/11/16 10:39:24;;;;;;;;;;;;;;;17.75;47.00;100867.41;5084394;28;1946;-43
2023/11/16 10:41:49;;;;;;;;;;;;;;;16.99;49.05;100854.56;5092326;28;1423;-46
2023/11/16 10:44:15;;;;;;;;;;;;;;;16.70;49.62;100863.28;5094139;28;1324;-47
2023/11/16 10:46:41;;;;;;;;;;;;;;;16.73;49.84;100858.09;5078964;28;1308;-44
2023/11/16 10:49:09;;;;;;;;;;;;;;;17.21;48.47;100854.28;5067026;28;1319;-48
2023/11/16 10:51:35;;;;;;;;;;;;;;;16.72;49.71;100850.13;5083259;28;1185;-45
2023/11/16 10:54:02;;;;;;;;;;;;;;;16.53;50.02;100852.56;5061255;28;1876;-44
2023/11/16 10:56:28;;;;;;;;;;;;;;;16.41;50.16;100861.88;5090422;28;1064;-48
2023/11/16 10:58:53;;;;;;;;;;;;;;;17.15;48.66;100858.13;5071438;28;1910;-48
2023/11/16 11:01:19;;;;;;;;;;;;;;;17.24;48.32;100848.25;5089669;28;1178;-43
2023/11/16 11:03:45;;;;;;;;;;;;;;;16.74;49.39;100853.41;5084113;28;1571;-46
2023/11/16 11:06:22;;;;;;;;;;;;;;;16.70;49.63;100847.63;5083692;28;983;-45
2023/11/16 11:08:48;;;;;;;;;;;;;;;17.49;47.59;100850.13;5076592;28;1042;-46
2023/11/16 11:11:20;;;;;;;;;;;;;;;16.89;49.25;100860.88;5087967;28;970;-42
2023/11/16 11:13:46;;;;;;;;;;;;;;;16.62;49.92;100861.91;5096369;28;991;-45
2023/11/16 11:16:15;;;;;;;;;;;;;;;17.47;47.88;100854.25;5095917;28;1097;-45
2023/11/16 11:18:44;;;;;;;;;;;;;;;17.22;48.30;100869.66;5076628;28;1917;-47
2023/11/16 11:21:09;;;;;;;;;;;;;;;16.80;49.22;100873.47;5089972;28;1261;-47
2023/11/16 11:23:37;;;;;;;;;;;;;;;16.56;49.88;100873.97;5094231;28;1852;-48
2023/11/16 11:26:03;;;;;;;;;;;;;;;16.43;50.15;100881.63;5088803;28;1122;-48
2023/11/16 11:28:29;;;;;;;;;;;;;;;16.84;49.33;100880.06;5083656;28;1039;-46
2023/11/16 11:30:57;;;;;;;;;;;;;;;17.26;48.27;100868.84;5081681;28;1311;-49
2023/11/16 11:33:25;;;;;;;;;;;;;;;16.74;49.36;100883.63;5084037;28;1007;-46
2023/11/16 11:35:53;;;;;;;;;;;;;;;16.52;49.91;100886.56;5096170;28;1060;-46
2023/11/16 11:38:19;;;;;;;;;;;;;;;16.43;50.33;100889.03;5084473;28;1988;-48
2023/11/16 11:40:48;;;;;;;;;;;;;;;17.68;47.18;100888.03;5092756;28;1346;-49
2023/11/16 11:43:26;;;;;;;;;;;;;;;17.00;48.93;100884.50;5096361;28;1041;-50
2023/11/16 11:45:52;;;;;;;;;;;;;;;16.60;49.71;100881.38;5093321;28;1034;-48
2023/11/16 11:48:18;;;;;;;;;;;;;;;16.53;50.13;100899.22;5066600;28;1031;-46
2023/11/16 11:50:44;;;;;;;;;;;;;;;16.37;50.43;100893.69;5094136;28;1030;-51
2023/11/16 11:53:16;;;;;;;;;;;;;;;17.56;47.59;100897.41;5077922;28;1082;-46
2023/11/16 11:55:50;;;;;;;;;;;;;;;17.01;48.59;100902.66;5094951;28;2478;-47
2023/11/16 11:58:16;;;;;;;;;;;;;;;16.62;49.60;100911.34;5085095;28;1977;-49
2023/11/16 12:00:48;;;;;;;;;;;;;;;16.46;49.93;100913.19;5092985;28;1186;-46
2023/11/16 12:03:15;;;;;;;;;;;;;;;17.23;48.45;100920.78;5085038;28;1111;-48
2023/11/16 12:05:41;;;;;;;;;;;;;;;17.04;48.50;100920.47;5079580;28;1014;-49
2023/11/16 12:08:06;;;;;;;;;;;;;;;16.63;49.53;100923.94;5075996;28;1057;-50
2023/11/16 12:10:32;;;;;;;;;;;;;;;16.47;50.28;100920.34;5087689;28;1070;-48
2023/11/16 12:13:00;;;;;;;;;;;;;;;17.03;48.87;100929.84;5082040;28;1074;-49
2023/11/16 12:15:26;;;;;;;;;;;;;;;17.42;47.74;100929.31;5091324;28;1046;-47
2023/11/16 12:17:51;;;;;;;;;;;;;;;16.85;49.10;100929.22;5095288;28;1906;-47
2023/11/16 12:20:17;;;;;;;;;;;;;;;16.60;49.61;100922.56;5084447;28;1111;-49
2023/11/16 12:22:43;;;;;;;;;;;;;;;17.19;48.59;100936.16;5090172;28;1179;-47
2023/11/16 12:25:14;;;;;;;;;;;;;;;17.45;47.53;100931.50;5082691;28;2514;-48
2023/11/16 12:27:41;;;;;;;;;;;;;;;16.86;49.34;100930.06;5099118;28;1070;-43
2023/11/16 12:30:07;;;;;;;;;;;;;;;16.61;49.76;100937.13;5098586;28;1011;-49
2023/11/16 12:32:33;;;;;;;;;;;;;;;16.47;50.16;100925.00;5070860;28;1422;-45
2023/11/16 12:34:58;;;;;;;;;;;;;;;17.23;48.61;100937.28;5096089;28;1647;-43
2023/11/16 12:37:24;;;;;;;;;;;;;;;17.26;48.19;100936.72;5099802;28;1921;-42
2023/11/16 12:39:50;;;;;;;;;;;;;;;16.75;49.59;100931.94;5109948;28;1094;-47
2023/11/16 12:42:15;;;;;;;;;;;;;;;16.72;49.62;100930.56;5080030;28;905;-41
2023/11/16 12:44:43;;;;;;;;;;;;;;;17.08;48.82;100929.81;5092790;28;1002;-43